Time;durP1;ratioP1;P1;durP2;ratioP2;P2;SDS_P1;SDS_P2;PMS_P1;PMS_P2;Temp;Humidity;BMP_temperature;BMP_pressure;BME280_temperature;BME280_humidity;BME280_pressure;Samples;Min_cycle;Max_cycle;Signal;HPM_P1;HPM_P2
2022/03/19 00:01:16;;;;;;;69.18;35.97;;;;;;;1.56;46.57;102882.53;5031883;28;20061;-74
2022/03/19 00:03:43;;;;;;;73.20;37.35;;;;;;;1.50;46.52;102881.13;5015101;28;20413;-73
2022/03/19 00:06:19;;;;;;;75.38;38.58;;;;;;;1.49;47.27;102885.09;5032613;28;20033;-73
2022/03/19 00:08:48;;;;;;;77.45;39.90;;;;;;;1.43;47.15;102878.91;4982376;28;20064;-74
2022/03/19 00:11:20;;;;;;;83.05;40.35;;;;;;;1.37;47.08;102882.31;5014995;28;20429;-73
2022/03/19 00:13:47;;;;;;;86.13;41.35;;;;;;;1.32;47.08;102880.59;5032576;28;20029;-74
2022/03/19 00:16:13;;;;;;;78.47;39.40;;;;;;;1.28;47.17;102871.22;5032259;28;20044;-74
2022/03/19 00:18:40;;;;;;;81.63;38.10;;;;;;;1.25;47.53;102878.34;5035039;28;20029;-74
2022/03/19 00:21:06;;;;;;;69.75;36.65;;;;;;;1.22;47.49;102876.25;5018380;28;20029;-72
2022/03/19 00:23:31;;;;;;;80.15;39.33;;;;;;;1.18;47.10;102875.34;5018443;28;20035;-73
2022/03/19 00:26:07;;;;;;;82.38;40.75;;;;;;;1.15;47.62;102873.22;5018314;28;20391;-74
2022/03/19 00:28:34;;;;;;;78.43;38.35;;;;;;;1.09;48.04;102870.97;5002278;28;20033;-74
2022/03/19 00:31:00;;;;;;;78.78;38.53;;;;;;;1.05;47.87;102873.69;5018124;28;20029;-75
2022/03/19 00:33:26;;;;;;;82.22;39.90;;;;;;;1.02;48.53;102880.00;5018372;28;20033;-75
2022/03/19 00:35:53;;;;;;;81.35;38.22;;;;;;;0.98;48.54;102878.25;5035788;28;20061;-74
2022/03/19 00:38:19;;;;;;;79.45;38.55;;;;;;;0.96;48.12;102878.59;5038099;28;20041;-74
2022/03/19 00:40:53;;;;;;;78.45;38.55;;;;;;;0.91;49.08;102884.44;5037307;28;20492;-74
2022/03/19 00:43:19;;;;;;;83.18;39.55;;;;;;;0.85;48.53;102883.84;5021152;28;20167;-75
2022/03/19 00:45:46;;;;;;;84.35;39.20;;;;;;;0.80;48.83;102875.66;5034675;28;20036;-73
2022/03/19 00:48:27;;;;;;;81.85;38.78;;;;;;;0.77;49.55;102873.56;5021709;28;20040;-74
2022/03/19 00:50:55;;;;;;;78.13;36.78;;;;;;;0.76;49.39;102871.09;5020983;28;20029;-74
2022/03/19 00:53:22;;;;;;;77.22;38.78;;;;;;;0.69;49.65;102854.03;5037540;28;20033;-74
2022/03/19 00:55:47;;;;;;;76.82;37.67;;;;;;;0.73;49.60;102861.41;5034591;28;20054;-74
2022/03/19 00:58:12;;;;;;;79.53;39.80;;;;;;;0.68;49.33;102858.84;5035750;28;20103;-75
2022/03/19 01:00:59;;;;;;;78.30;38.25;;;;;;;0.71;49.98;102866.53;5035572;28;20032;-74
2022/03/19 01:03:26;;;;;;;74.97;38.92;;;;;;;0.69;49.15;102856.84;5015629;28;20486;-74
2022/03/19 01:05:52;;;;;;;82.30;39.35;;;;;;;0.67;49.21;102854.38;5015809;28;20026;-72
2022/03/19 01:08:19;;;;;;;68.03;36.53;;;;;;;0.67;49.32;102847.94;5015729;28;20026;-74
2022/03/19 01:10:45;;;;;;;76.47;37.95;;;;;;;0.66;49.56;102851.91;5015356;28;20039;-75
2022/03/19 01:13:11;;;;;;;81.15;38.08;;;;;;;0.49;49.95;102819.31;5015407;28;20021;-74
2022/03/19 01:15:38;;;;;;;71.00;36.78;;;;;;;0.66;50.19;102854.72;5014391;28;20100;-74
2022/03/19 01:18:05;;;;;;;80.55;38.20;;;;;;;0.64;50.02;102851.47;4981743;28;20060;-74
2022/03/19 01:20:31;;;;;;;79.28;38.30;;;;;;;0.61;50.25;102850.16;5014329;28;20395;-73
2022/03/19 01:22:57;;;;;;;74.45;37.97;;;;;;;0.56;49.78;102846.75;5015358;28;20041;-75
2022/03/19 01:25:26;;;;;;;79.78;38.85;;;;;;;0.62;49.93;102860.22;5013867;28;20053;-73
2022/03/19 01:28:06;;;;;;;71.13;37.20;;;;;;;0.60;50.83;102862.53;4997821;28;20026;-74
2022/03/19 01:30:32;;;;;;;74.05;37.55;;;;;;;0.60;50.06;102858.91;5014573;28;20030;-73
2022/03/19 01:32:58;;;;;;;70.78;36.40;;;;;;;0.59;50.45;102851.69;4981305;28;20107;-75
2022/03/19 01:35:24;;;;;;;79.07;38.25;;;;;;;0.59;50.21;102849.72;4997336;28;20041;-72
2022/03/19 01:37:50;;;;;;;71.95;37.15;;;;;;;0.63;50.23;102866.66;5015099;28;20042;-74
2022/03/19 01:40:18;;;;;;;82.22;38.03;;;;;;;0.72;50.78;102851.34;4997389;28;20095;-74
2022/03/19 01:42:47;;;;;;;72.00;36.47;;;;;;;0.77;50.45;102850.31;4997244;28;20030;-74
2022/03/19 01:45:28;;;;;;;78.28;36.78;;;;;;;0.88;51.97;102859.91;4980957;28;20088;-74
2022/03/19 01:47:54;;;;;;;75.53;39.87;;;;;;;0.92;50.90;102843.19;5013762;28;20057;-74
2022/03/19 01:50:22;;;;;;;76.35;36.47;;;;;;;1.04;50.73;102843.16;5013380;28;20691;-74
2022/03/19 01:52:49;;;;;;;75.13;38.08;;;;;;;1.12;50.64;102842.25;4997241;28;20096;-74
2022/03/19 01:55:21;;;;;;;75.35;36.30;;;;;;;1.19;50.86;102848.06;4980998;28;20051;-73
2022/03/19 01:57:48;;;;;;;78.28;38.60;;;;;;;1.25;50.31;102843.84;4998480;28;20096;-74
2022/03/19 02:00:24;;;;;;;74.60;37.25;;;;;;;1.30;50.78;102838.00;5033190;28;20485;-73
2022/03/19 02:02:51;;;;;;;75.97;37.15;;;;;;;1.38;50.67;102839.88;5033286;28;20493;-74
2022/03/19 02:05:18;;;;;;;80.43;38.42;;;;;;;1.46;50.59;102838.91;5032866;28;20490;-75
2022/03/19 02:07:45;;;;;;;72.85;38.50;;;;;;;1.54;50.94;102831.50;5016800;28;20476;-75
2022/03/19 02:10:12;;;;;;;77.05;36.92;;;;;;;1.57;50.55;102828.81;5034097;28;20025;-75
2022/03/19 02:12:39;;;;;;;74.45;35.83;;;;;;;1.62;50.52;102834.19;5033144;28;20029;-73
2022/03/19 02:15:05;;;;;;;75.65;37.22;;;;;;;1.65;50.27;102819.44;5034124;28;20060;-75
2022/03/19 02:17:31;;;;;;;75.70;36.42;;;;;;;1.74;50.58;102824.91;5016221;28;20063;-74
2022/03/19 02:19:57;;;;;;;83.13;38.35;;;;;;;1.80;50.25;102831.91;5016175;28;20463;-74
2022/03/19 02:22:27;;;;;;;71.70;35.33;;;;;;;1.87;50.52;102836.91;5034056;28;20481;-74
2022/03/19 02:27:38;;;;;;;73.57;36.97;;;;;;;2.02;50.56;102822.09;5033083;28;20555;-75
2022/03/19 02:30:07;;;;;;;68.30;35.00;;;;;;;2.06;51.23;102820.19;5015999;28;20034;-74
2022/03/19 02:32:35;;;;;;;73.07;37.25;;;;;;;2.18;50.42;102825.75;5016342;28;20040;-74
2022/03/19 02:35:04;;;;;;;69.28;36.80;;;;;;;2.24;50.52;102823.50;5033836;28;20485;-74
2022/03/19 02:37:41;;;;;;;78.88;38.00;;;;;;;2.32;51.15;102822.53;5015875;28;20036;-75
2022/03/19 02:40:09;;;;;;;65.78;35.45;;;;;;;2.34;50.75;102825.78;5033494;28;20025;-73
2022/03/19 02:42:36;;;;;;;75.70;37.97;;;;;;;2.38;50.56;102823.88;5016299;28;20432;-76
2022/03/19 02:45:05;;;;;;;74.05;35.58;;;;;;;2.44;50.52;102825.25;5015811;28;20030;-74
2022/03/19 02:47:31;;;;;;;68.95;36.45;;;;;;;2.47;50.38;102822.53;5032347;28;20021;-74
2022/03/19 02:49:57;;;;;;;73.78;35.55;;;;;;;2.46;50.03;102812.47;5016277;28;20083;-74
2022/03/19 02:52:22;;;;;;;72.13;33.85;;;;;;;2.49;49.67;102814.56;5015842;28;20029;-75
2022/03/19 02:54:50;;;;;;;79.63;34.88;;;;;;;2.54;49.46;102816.28;5032507;28;20087;-74
2022/03/19 02:57:15;;;;;;;66.72;35.28;;;;;;;2.58;49.33;102815.19;5032604;28;20060;-74
2022/03/19 02:59:41;;;;;;;69.40;35.40;;;;;;;2.68;49.36;102807.38;5032106;28;20116;-74
2022/03/19 03:02:08;;;;;;;66.45;35.00;;;;;;;2.71;49.29;102807.50;5032445;28;20037;-74
2022/03/19 03:04:34;;;;;;;71.47;35.63;;;;;;;2.78;49.94;102812.47;5013097;28;20038;-72
2022/03/19 03:07:07;;;;;;;67.90;34.05;;;;;;;2.80;49.57;102802.50;5032126;28;20035;-73
2022/03/19 03:09:33;;;;;;;70.90;36.03;;;;;;;2.83;49.10;102815.00;5032267;28;20025;-73
2022/03/19 03:12:01;;;;;;;70.40;37.40;;;;;;;2.84;49.05;102806.19;5032038;28;20474;-74
2022/03/19 03:14:27;;;;;;;70.13;37.05;;;;;;;2.85;49.05;102807.84;4999547;28;20037;-72
2022/03/19 03:16:54;;;;;;;67.13;36.60;;;;;;;2.82;48.98;102817.00;5031837;28;20029;-74
2022/03/19 03:19:21;;;;;;;69.03;35.50;;;;;;;2.78;49.04;102813.28;5015795;28;20032;-73
2022/03/19 03:21:49;;;;;;;69.50;37.35;;;;;;;2.74;49.22;102806.75;4999166;28;20390;-75
2022/03/19 03:24:14;;;;;;;71.70;36.85;;;;;;;2.75;49.34;102816.84;5033355;28;20414;-73
2022/03/19 03:26:48;;;;;;;81.93;36.05;;;;;;;2.77;49.45;102816.44;5031982;28;20498;-74
2022/03/19 03:29:17;;;;;;;67.82;36.17;;;;;;;2.77;49.15;102811.63;5033003;28;20025;-73
2022/03/19 03:31:44;;;;;;;70.70;37.08;;;;;;;2.76;49.44;102812.03;5033047;28;20482;-73
2022/03/19 03:34:10;;;;;;;69.55;37.75;;;;;;;2.72;50.09;102811.91;5032111;28;20032;-73
2022/03/19 03:36:37;;;;;;;69.03;36.88;;;;;;;2.71;50.14;102807.50;5030446;28;20069;-75
2022/03/19 03:39:06;;;;;;;75.78;35.42;;;;;;;2.65;50.62;102797.69;5033235;28;20017;-74
2022/03/19 03:41:32;;;;;;;74.50;37.28;;;;;;;2.68;50.42;102808.19;4999018;28;20064;-74
2022/03/19 03:43:58;;;;;;;75.47;38.10;;;;;;;2.61;50.09;102802.41;5031633;28;20037;-72
2022/03/19 03:46:26;;;;;;;72.05;37.53;;;;;;;2.51;50.79;102802.94;5015182;28;20043;-74
2022/03/19 03:48:51;;;;;;;67.13;36.70;;;;;;;2.55;50.51;102810.28;5033211;28;20071;-73
2022/03/19 03:51:17;;;;;;;71.50;37.33;;;;;;;2.53;50.57;102815.47;5031254;28;20038;-72
2022/03/19 03:53:45;;;;;;;70.20;35.75;;;;;;;2.50;50.12;102807.75;5017720;28;20026;-74
2022/03/19 03:56:10;;;;;;;76.38;37.83;;;;;;;2.48;50.79;102807.28;5035245;28;20053;-74
2022/03/19 03:58:37;;;;;;;72.13;37.45;;;;;;;2.47;51.05;102807.63;5036565;28;20041;-73
2022/03/19 04:01:03;;;;;;;67.10;35.67;;;;;;;2.46;50.67;102818.09;5018923;28;20116;-75
2022/03/19 04:03:29;;;;;;;70.13;36.80;;;;;;;2.41;50.56;102806.31;5036561;28;20479;-74
2022/03/19 04:05:56;;;;;;;70.18;37.10;;;;;;;2.38;50.58;102810.63;5034894;28;20086;-74
2022/03/19 04:08:21;;;;;;;69.95;35.60;;;;;;;2.40;50.60;102807.47;5018564;28;20031;-73
2022/03/19 04:10:46;;;;;;;77.80;37.70;;;;;;;2.40;50.95;102805.47;5035213;28;20025;-74
2022/03/19 04:13:12;;;;;;;66.82;34.90;;;;;;;2.43;50.62;102816.00;5034891;28;20037;-74
2022/03/19 04:15:38;;;;;;;64.60;34.17;;;;;;;2.39;50.13;102806.66;5018877;28;20021;-74
2022/03/19 04:18:05;;;;;;;68.97;34.47;;;;;;;2.42;50.25;102807.91;5034428;28;20496;-75
2022/03/19 04:20:30;;;;;;;64.28;33.55;;;;;;;2.43;50.22;102804.75;5018468;28;20029;-74
2022/03/19 04:22:56;;;;;;;67.15;34.72;;;;;;;2.46;49.81;102804.03;5036118;28;20466;-74
2022/03/19 04:25:25;;;;;;;64.50;34.03;;;;;;;2.50;50.44;102793.69;5017848;28;20060;-74
2022/03/19 04:27:54;;;;;;;78.03;34.97;;;;;;;2.50;49.73;102795.69;5035490;28;20061;-74
2022/03/19 04:30:22;;;;;;;70.05;35.80;;;;;;;2.54;50.20;102793.78;5036173;28;20064;-75
2022/03/19 04:33:01;;;;;;;71.97;38.35;;;;;;;2.51;50.78;102794.50;5035270;28;20029;-74
2022/03/19 04:38:31;;;;;;;71.05;37.35;;;;;;;2.52;50.27;102787.69;5013913;28;20112;-73
2022/03/19 04:41:00;;;;;;;72.07;38.47;;;;;;;2.54;50.75;102791.78;5013946;28;20041;-73
2022/03/19 04:43:26;;;;;;;78.18;38.15;;;;;;;2.56;50.40;102799.88;4995759;28;20375;-73
2022/03/19 04:45:54;;;;;;;66.50;36.25;;;;;;;2.54;50.72;102785.34;5017302;28;20037;-75
2022/03/19 04:48:21;;;;;;;67.95;37.30;;;;;;;2.56;50.51;102777.38;5034456;28;20458;-75
2022/03/19 04:50:48;;;;;;;70.63;37.25;;;;;;;2.62;51.04;102784.31;5017683;28;20087;-74
2022/03/19 04:53:14;;;;;;;74.15;38.35;;;;;;;2.72;50.68;102788.59;5017659;28;20426;-73
2022/03/19 04:55:42;;;;;;;77.05;37.05;;;;;;;2.77;51.12;102782.69;5040174;28;20490;-73
2022/03/19 04:58:16;;;;;;;73.07;37.72;;;;;;;2.83;51.83;102789.66;5037646;28;20394;-73
2022/03/19 05:00:43;;;;;;;76.75;37.60;;;;;;;2.83;51.07;102778.41;5055185;28;20458;-73
2022/03/19 05:03:13;;;;;;;79.18;39.13;;;;;;;2.90;50.91;102785.03;5050218;28;20041;-72
2022/03/19 05:05:39;;;;;;;75.65;37.03;;;;;;;2.92;51.60;102782.66;5037992;28;20040;-74
2022/03/19 05:08:05;;;;;;;74.22;37.65;;;;;;;3.01;50.84;102788.91;5036218;28;20033;-73
2022/03/19 05:13:20;;;;;;;74.20;36.88;;;;;;;3.07;50.54;102789.44;5040427;28;20075;-73
2022/03/19 05:15:46;;;;;;;87.68;41.30;;;;;;;3.12;50.47;102794.78;5037190;28;20037;-73
2022/03/19 05:18:12;;;;;;;81.05;42.15;;;;;;;3.14;49.74;102791.63;5037237;28;20454;-73
2022/03/19 05:20:42;;;;;;;80.35;42.30;;;;;;;3.23;49.61;102804.31;5037250;28;20029;-74
2022/03/19 05:23:07;;;;;;;63.00;36.78;;;;;;;3.30;49.16;102801.66;5037515;28;20041;-74
2022/03/19 05:25:33;;;;;;;67.65;37.55;;;;;;;3.35;49.14;102801.38;5020452;28;20059;-73
2022/03/19 05:28:00;;;;;;;68.15;33.78;;;;;;;3.39;49.22;102796.63;5037057;28;20021;-74
2022/03/19 05:30:26;;;;;;;73.78;37.22;;;;;;;3.45;49.32;102794.34;5036957;28;20155;-74
2022/03/19 05:32:52;;;;;;;79.90;36.45;;;;;;;3.53;49.21;102801.75;5035612;28;20037;-74
2022/03/19 05:35:21;;;;;;;73.40;35.28;;;;;;;3.62;48.95;102796.72;5036653;28;20033;-74
2022/03/19 05:37:47;;;;;;;78.90;37.38;;;;;;;3.68;49.16;102794.44;5036848;28;20039;-74
2022/03/19 05:40:14;;;;;;;78.30;35.85;;;;;;;3.76;49.17;102799.84;5054513;28;20031;-75
2022/03/19 05:42:48;;;;;;;68.35;36.80;;;;;;;3.85;48.09;102799.59;5036418;28;20393;-73
2022/03/19 05:45:15;;;;;;;81.45;40.97;;;;;;;3.91;47.92;102801.75;5054787;28;20025;-74
2022/03/19 05:47:44;;;;;;;71.40;39.90;;;;;;;3.99;47.21;102799.91;5036311;28;20524;-73
2022/03/19 05:50:11;;;;;;;68.22;38.92;;;;;;;4.04;46.90;102802.44;5036596;28;20083;-74
2022/03/19 05:52:40;;;;;;;71.82;38.80;;;;;;;4.11;47.09;102805.38;5036357;28;20131;-74
2022/03/19 05:55:06;;;;;;;83.95;37.42;;;;;;;4.22;47.13;102808.41;5019855;28;20061;-74
2022/03/19 05:57:36;;;;;;;72.43;39.33;;;;;;;4.25;46.88;102800.00;5053912;28;20029;-74
2022/03/19 06:00:04;;;;;;;64.35;35.25;;;;;;;4.37;46.50;102801.84;5020250;28;20032;-74
2022/03/19 06:02:32;;;;;;;79.35;38.67;;;;;;;4.48;46.53;102810.50;5000029;28;20467;-74
2022/03/19 06:05:00;;;;;;;71.40;38.05;;;;;;;4.59;46.34;102811.47;5034053;28;20449;-74
2022/03/19 06:07:26;;;;;;;76.22;38.17;;;;;;;4.79;46.48;102810.22;5034033;28;20017;-73
2022/03/19 06:09:52;;;;;;;76.05;40.10;;;;;;;5.01;45.47;102797.28;5016509;28;20029;-74
2022/03/19 06:12:18;;;;;;;77.43;39.08;;;;;;;5.38;45.79;102805.91;5034493;28;20029;-74
2022/03/19 06:14:44;;;;;;;78.32;40.63;;;;;;;5.71;44.74;102805.16;5016577;28;20037;-73
2022/03/19 06:17:11;;;;;;;79.32;39.05;;;;;;;6.38;43.56;102820.09;5033771;28;20022;-73
2022/03/19 06:19:37;;;;;;;75.85;39.50;;;;;;;7.51;41.38;102806.84;5031356;28;20041;-74
2022/03/19 06:22:05;;;;;;;94.32;41.30;;;;;;;8.89;40.01;102801.59;5015928;28;20025;-72
2022/03/19 06:24:32;;;;;;;89.88;42.15;;;;;;;9.91;37.99;102805.44;5034105;28;20025;-72
2022/03/19 06:26:58;;;;;;;76.60;41.72;;;;;;;10.33;35.89;102810.13;5034663;28;20060;-72
2022/03/19 06:29:24;;;;;;;76.13;40.70;;;;;;;11.71;34.95;102806.03;4999630;28;20021;-72
2022/03/19 06:31:50;;;;;;;84.18;40.50;;;;;;;13.02;32.79;102795.59;5033739;28;20028;-72
2022/03/19 06:34:17;;;;;;;65.70;37.45;;;;;;;14.63;29.44;102791.88;5033976;28;20039;-73
2022/03/19 06:39:27;;;;;;;63.35;34.95;;;;;;;16.70;25.71;102792.19;5018946;28;20043;-72
2022/03/19 06:41:53;;;;;;;53.55;31.02;;;;;;;18.07;23.10;102794.28;5034026;28;20383;-73
2022/03/19 06:44:21;;;;;;;63.92;34.25;;;;;;;17.35;21.70;102782.16;5015711;28;20052;-74
2022/03/19 06:46:53;;;;;;;59.20;32.97;;;;;;;16.10;23.02;102796.13;5033274;28;20095;-72
2022/03/19 06:49:18;;;;;;;59.25;32.10;;;;;;;14.76;24.33;102792.78;5015562;28;20037;-72
2022/03/19 06:51:46;;;;;;;63.92;33.67;;;;;;;15.48;24.37;102807.72;5033833;28;20488;-73
2022/03/19 06:54:11;;;;;;;68.13;35.28;;;;;;;15.82;23.26;102807.19;5015407;28;20513;-73
2022/03/19 06:56:38;;;;;;;62.95;35.03;;;;;;;15.38;23.83;102805.13;4979305;28;20065;-74
2022/03/19 06:59:04;;;;;;;62.95;33.00;;;;;;;16.29;23.13;102795.09;5013583;28;20025;-73
2022/03/19 07:01:39;;;;;;;60.90;35.00;;;;;;;18.42;21.35;102797.03;5013889;28;20034;-73
2022/03/19 07:04:05;;;;;;;60.17;34.90;;;;;;;21.01;18.94;102786.91;5013142;28;20026;-76
2022/03/19 07:06:32;;;;;;;57.15;31.45;;;;;;;23.02;16.64;102787.81;5012261;28;20068;-72
2022/03/19 07:08:59;;;;;;;54.08;33.15;;;;;;;24.78;15.47;102786.59;5013585;28;20026;-73
2022/03/19 07:11:24;;;;;;;62.20;33.75;;;;;;;26.08;14.05;102787.50;5013047;28;20172;-73
2022/03/19 07:13:50;;;;;;;61.22;32.13;;;;;;;25.44;14.01;102797.91;5013613;28;20360;-73
2022/03/19 07:16:17;;;;;;;55.45;31.00;;;;;;;21.62;15.73;102810.63;5013072;28;20530;-72
2022/03/19 07:18:43;;;;;;;56.45;30.63;;;;;;;18.19;18.68;102820.63;5013164;28;20049;-72
2022/03/19 07:21:16;;;;;;;48.33;27.63;;;;;;;15.49;21.54;102826.56;5013232;28;20042;-73
2022/03/19 07:23:43;;;;;;;48.47;28.67;;;;;;;13.33;24.12;102828.56;5013745;28;20103;-73
2022/03/19 07:26:09;;;;;;;42.47;25.65;;;;;;;11.96;25.82;102838.00;4995790;28;20084;-74
2022/03/19 07:28:36;;;;;;;48.38;26.77;;;;;;;11.12;27.13;102839.66;5016696;28;20356;-74
2022/03/19 07:31:09;;;;;;;42.47;26.13;;;;;;;10.66;27.88;102851.44;5012743;28;20042;-73
2022/03/19 07:33:38;;;;;;;49.10;26.73;;;;;;;10.49;29.08;102856.03;5015907;28;20029;-73
2022/03/19 07:36:04;;;;;;;45.00;27.17;;;;;;;10.61;28.54;102855.53;5017051;28;20402;-73
2022/03/19 07:38:35;;;;;;;45.53;26.42;;;;;;;12.06;28.24;102853.38;5016582;28;20030;-74
2022/03/19 07:43:44;;;;;;;46.05;25.58;;;;;;;19.53;19.36;102811.38;5017247;28;20041;-73
2022/03/19 07:46:10;;;;;;;42.75;23.85;;;;;;;22.01;15.63;102813.53;5017509;28;20038;-73
2022/03/19 07:48:36;;;;;;;50.25;25.38;;;;;;;22.31;15.47;102820.97;4999525;28;20403;-72
2022/03/19 07:51:02;;;;;;;45.80;26.00;;;;;;;22.74;14.93;102814.34;4999996;28;20036;-73
2022/03/19 07:53:28;;;;;;;43.35;24.92;;;;;;;23.29;14.62;102824.44;5020985;28;20161;-72
2022/03/19 07:55:57;;;;;;;44.13;23.70;;;;;;;22.87;13.44;102828.56;5026153;28;20084;-75
2022/03/19 07:58:24;;;;;;;41.30;23.38;;;;;;;22.22;14.11;102830.59;5008924;28;20517;-73
2022/03/19 08:00:50;;;;;;;41.45;25.77;;;;;;;20.67;14.80;102837.41;4997589;28;20056;-71
2022/03/19 08:03:16;;;;;;;46.75;25.27;;;;;;;18.67;16.08;102825.72;5024123;28;20045;-71
2022/03/19 08:05:42;;;;;;;45.13;25.70;;;;;;;17.46;17.80;102852.53;5017232;28;20033;-72
2022/03/19 08:08:07;;;;;;;43.35;25.23;;;;;;;17.45;18.07;102853.00;4996507;28;20049;-74
2022/03/19 08:10:35;;;;;;;46.97;27.33;;;;;;;17.86;17.78;102832.56;4996173;28;20474;-72
2022/03/19 08:13:12;;;;;;;58.53;27.70;;;;;;;18.40;17.43;102829.25;5013957;28;20479;-71
2022/03/19 08:15:39;;;;;;;53.63;27.45;;;;;;;18.82;17.10;102841.19;5014537;28;20041;-72
2022/03/19 08:18:06;;;;;;;46.03;27.25;;;;;;;19.13;16.57;102838.28;4997842;28;20081;-72
2022/03/19 08:20:38;;;;;;;49.75;27.88;;;;;;;19.05;16.92;102836.13;5012884;28;20040;-72
2022/03/19 08:23:11;;;;;;;48.70;29.00;;;;;;;19.09;16.54;102828.94;4996505;28;20121;-72
2022/03/19 08:25:37;;;;;;;52.42;27.88;;;;;;;18.78;16.78;102843.44;5013407;28;20045;-72
2022/03/19 08:28:03;;;;;;;46.03;29.08;;;;;;;18.71;16.52;102845.78;5012934;28;20391;-73
2022/03/19 08:30:30;;;;;;;40.40;27.30;;;;;;;18.20;16.72;102848.22;5014794;28;20046;-75
2022/03/19 08:32:56;;;;;;;45.70;27.70;;;;;;;17.80;17.39;102845.19;5014596;28;20029;-74
2022/03/19 08:35:21;;;;;;;46.38;27.67;;;;;;;17.41;17.77;102844.47;5013378;28;20156;-72
2022/03/19 08:37:47;;;;;;;44.95;27.65;;;;;;;17.36;18.60;102845.06;5014142;28;20120;-72
2022/03/19 08:40:19;;;;;;;41.15;25.20;;;;;;;17.37;17.75;102843.78;4996504;28;20133;-74
2022/03/19 08:42:51;;;;;;;47.97;27.50;;;;;;;17.19;18.29;102844.41;5013222;28;20041;-73
2022/03/19 08:45:19;;;;;;;47.65;27.88;;;;;;;17.18;18.40;102836.22;5014546;28;20060;-73
2022/03/19 08:47:45;;;;;;;42.22;27.80;;;;;;;17.09;18.87;102845.56;4980505;28;20018;-72
2022/03/19 08:50:10;;;;;;;49.97;26.88;;;;;;;17.18;18.92;102844.84;5013321;28;20159;-72
2022/03/19 08:52:36;;;;;;;45.78;25.98;;;;;;;17.12;18.63;102840.97;5014393;28;20463;-73
2022/03/19 08:55:04;;;;;;;44.80;27.65;;;;;;;16.96;18.73;102841.09;5014071;28;20021;-72
2022/03/19 08:57:31;;;;;;;46.22;25.77;;;;;;;16.76;18.31;102842.16;4997833;28;20437;-72
2022/03/19 08:59:57;;;;;;;41.63;24.85;;;;;;;16.50;18.45;102846.22;5014171;28;20088;-73
2022/03/19 09:02:23;;;;;;;34.13;22.63;;;;;;;15.97;18.94;102845.78;5013926;28;20053;-73
2022/03/19 09:04:50;;;;;;;46.63;24.55;;;;;;;15.78;19.23;102841.00;5014052;28;20029;-73
2022/03/19 09:07:17;;;;;;;36.25;21.33;;;;;;;15.74;19.22;102848.09;5015667;28;20049;-73
2022/03/19 09:09:44;;;;;;;34.33;21.58;;;;;;;15.62;19.71;102843.09;4998103;28;20140;-73
2022/03/19 09:12:11;;;;;;;33.63;19.20;;;;;;;15.81;19.22;102833.50;5023026;28;20473;-74
2022/03/19 09:14:37;;;;;;;35.22;19.90;;;;;;;15.69;18.88;102843.69;5033678;28;20229;-73
2022/03/19 09:17:04;;;;;;;34.05;20.45;;;;;;;15.46;19.00;102838.16;5035127;28;20466;-74
2022/03/19 09:19:32;;;;;;;34.63;20.83;;;;;;;15.29;19.27;102830.81;5000557;28;20033;-74
2022/03/19 09:21:59;;;;;;;29.45;17.73;;;;;;;14.94;19.14;102833.34;5035249;28;20034;-74
2022/03/19 09:24:26;;;;;;;28.15;17.83;;;;;;;14.67;19.68;102827.84;5017474;28;20410;-73
2022/03/19 09:26:52;;;;;;;33.55;19.95;;;;;;;14.53;19.82;102827.38;5033252;28;20083;-73
2022/03/19 09:29:18;;;;;;;28.00;17.52;;;;;;;14.58;19.29;102833.38;5017167;28;20044;-73
2022/03/19 09:31:44;;;;;;;30.40;16.85;;;;;;;14.31;19.10;102826.22;5034934;28;20115;-73
2022/03/19 09:34:11;;;;;;;26.92;17.75;;;;;;;14.05;19.63;102828.81;5032273;28;20041;-74
2022/03/19 09:36:36;;;;;;;32.58;17.40;;;;;;;13.88;20.07;102820.56;5033636;28;20053;-74
2022/03/19 09:39:03;;;;;;;33.70;18.08;;;;;;;13.95;19.82;102817.56;5033499;28;20037;-75
2022/03/19 09:41:29;;;;;;;30.35;17.45;;;;;;;14.01;19.71;102827.28;5016653;28;20429;-73
2022/03/19 09:44:00;;;;;;;33.83;16.80;;;;;;;13.96;19.62;102819.97;5033169;28;20033;-73
2022/03/19 09:46:26;;;;;;;23.85;16.00;;;;;;;13.79;20.10;102819.13;5033178;28;20025;-73
2022/03/19 09:48:53;;;;;;;25.02;16.67;;;;;;;13.72;20.41;102819.25;5034099;28;20036;-73
2022/03/19 09:51:19;;;;;;;44.13;16.10;;;;;;;13.57;19.11;102815.03;5033841;28;20026;-74
2022/03/19 09:53:46;;;;;;;49.78;14.90;;;;;;;13.24;19.03;102818.94;5018164;28;20037;-74
2022/03/19 09:56:11;;;;;;;30.55;13.27;;;;;;;12.89;19.30;102829.72;5033237;28;20049;-73
2022/03/19 09:58:37;;;;;;;25.50;13.48;;;;;;;12.74;20.21;102819.75;5034068;28;20033;-73
2022/03/19 10:01:06;;;;;;;27.77;13.27;;;;;;;12.93;20.07;102821.88;5016237;28;20363;-74
2022/03/19 10:03:39;;;;;;;26.08;14.77;;;;;;;13.01;20.30;102821.78;5032736;28;20087;-73
2022/03/19 10:08:58;;;;;;;26.25;12.98;;;;;;;12.96;20.05;102812.44;5029092;28;20458;-73
2022/03/19 10:11:29;;;;;;;26.10;12.82;;;;;;;12.82;19.61;102824.13;5024824;28;20063;-74
2022/03/19 10:13:55;;;;;;;21.10;12.32;;;;;;;12.67;20.28;102813.34;5026498;28;20030;-74
2022/03/19 10:16:24;;;;;;;20.67;12.70;;;;;;;12.69;19.88;102814.50;5014578;28;20083;-73
2022/03/19 10:18:56;;;;;;;23.00;10.82;;;;;;;12.97;19.43;102814.03;5010751;28;20034;-73
2022/03/19 10:21:22;;;;;;;21.10;10.80;;;;;;;12.83;19.93;102819.19;5014107;28;20030;-74
2022/03/19 10:23:48;;;;;;;20.27;11.65;;;;;;;12.76;20.04;102811.56;5013113;28;20033;-72
2022/03/19 10:26:29;;;;;;;26.33;11.68;;;;;;;12.74;20.51;102811.16;5021403;28;20048;-73
2022/03/19 10:29:00;;;;;;;24.08;12.60;;;;;;;12.75;20.57;102809.13;5030039;28;20025;-73
2022/03/19 10:31:37;;;;;;;21.83;12.07;;;;;;;12.88;20.77;102807.25;5032549;28;20079;-74
2022/03/19 10:34:06;;;;;;;21.15;11.77;;;;;;;13.06;20.25;102804.94;5024125;28;20057;-74
2022/03/19 10:36:36;;;;;;;19.65;12.30;;;;;;;13.17;19.78;102814.13;5015459;28;20029;-77
2022/03/19 10:39:17;;;;;;;19.65;11.85;;;;;;;13.07;19.75;102812.28;5021330;28;20084;-76
2022/03/19 10:41:44;;;;;;;16.17;11.33;;;;;;;12.90;20.16;102814.19;5013631;28;20482;-76
2022/03/19 10:44:11;;;;;;;21.50;14.35;;;;;;;12.70;20.50;102823.91;5018810;28;20462;-78
2022/03/19 10:46:42;;;;;;;22.25;13.02;;;;;;;12.67;20.09;102817.00;5015731;28;20447;-76
2022/03/19 10:49:17;;;;;;;24.65;13.25;;;;;;;12.38;20.10;102805.19;5005923;28;20038;-76
2022/03/19 10:51:48;;;;;;;22.70;13.15;;;;;;;12.35;20.89;102797.47;5019275;28;20053;-76
2022/03/19 10:54:16;;;;;;;17.27;11.05;;;;;;;12.57;20.13;102797.97;5014739;28;20026;-77
2022/03/19 10:56:43;;;;;;;31.08;12.80;;;;;;;12.59;19.72;102803.25;4994116;28;20400;-76
2022/03/19 10:59:08;;;;;;;18.90;12.05;;;;;;;12.40;19.96;102805.56;5033571;28;20037;-76
2022/03/19 11:01:39;;;;;;;24.85;13.45;;;;;;;12.30;20.81;102809.38;5015682;28;20033;-74
2022/03/19 11:04:06;;;;;;;20.30;12.50;;;;;;;12.31;20.67;102808.16;5015454;28;20029;-76
2022/03/19 11:06:38;;;;;;;21.40;13.50;;;;;;;12.11;20.56;102792.91;5032047;28;20029;-76
2022/03/19 11:09:06;;;;;;;;;;;;;;;11.89;21.12;102788.75;5032255;28;20132;-76
2022/03/19 11:11:39;;;;;;;22.33;13.18;;;;;;;11.66;20.98;102792.22;5032073;28;19912;-77
2022/03/19 11:14:05;;;;;;;26.65;13.18;;;;;;;11.65;21.20;102790.59;5033272;28;20030;-76
2022/03/19 11:16:35;;;;;;;20.60;12.57;;;;;;;11.58;21.77;102796.41;5031777;28;20025;-77
2022/03/19 11:19:03;;;;;;;19.00;11.52;;;;;;;11.59;20.65;102783.78;5033177;28;20037;-76
2022/03/19 11:21:31;;;;;;;25.95;14.32;;;;;;;11.43;21.56;102789.25;5032333;28;20061;-76
2022/03/19 11:24:22;;;;;;;19.80;13.32;;;;;;;11.42;21.51;102790.47;5032024;28;20124;-77
2022/03/19 11:26:50;;;;;;;21.45;12.85;;;;;;;11.40;21.04;102793.75;5032350;28;20049;-76
2022/03/19 11:29:18;;;;;;;20.00;12.52;;;;;;;11.42;21.13;102781.91;4999468;28;20471;-77
2022/03/19 11:31:57;;;;;;;21.25;13.52;;;;;;;11.22;21.68;102781.72;4999482;28;20127;-78
2022/03/19 11:34:24;;;;;;;19.25;13.10;;;;;;;11.09;21.92;102778.59;5000891;28;20084;-77